Terminal Aerodrome Forecast
Issued by NWS Bismarck, ND

Home | Current Version | Previous Version | Text Only | Print | Product List | Glossary Off
Versions: 1 2 3 4 5 6 7 8 9 10 11 12 13 14 15 16 17

000
FTUS43 KBIS 211300 AAA
TAFBIS
TAF AMD
KBIS 211322Z 2113/2212 34006KT P6SM SCT004 OVC008
      TEMPO 2114/2115 SCT007
     FM211500 32007KT P6SM FEW009 SCT050
     FM220700 04008KT P6SM VCTS BKN050CB=

USA.gov is the U.S. government's official web portal to all federal, state and local government web resources and services.